createdAt,value
2018-12-13T00:02:25.695Z,7.13
2018-12-13T00:04:53.140Z,6.67
2018-12-13T00:07:20.906Z,6.93
2018-12-13T00:09:48.489Z,7.40
2018-12-13T00:12:15.928Z,7.20
2018-12-13T00:14:43.897Z,5.83
2018-12-13T00:17:11.471Z,6.80
2018-12-13T00:19:38.965Z,7.80
2018-12-13T00:22:06.427Z,6.15
2018-12-13T00:24:33.991Z,6.83
2018-12-13T00:27:01.436Z,5.73
2018-12-13T00:29:28.889Z,7.35
2018-12-13T00:31:56.381Z,7.90
2018-12-13T00:34:23.833Z,7.07
2018-12-13T00:36:51.846Z,5.42
2018-12-13T00:39:19.485Z,6.53
2018-12-13T00:41:46.953Z,7.73
2018-12-13T00:44:14.554Z,6.70
2018-12-13T00:46:42.029Z,7.50
2018-12-13T00:49:09.477Z,6.70
2018-12-13T00:51:36.995Z,6.10
2018-12-13T00:54:05.353Z,7.00
2018-12-13T00:56:32.825Z,7.85
2018-12-13T00:59:00.272Z,7.80
2018-12-13T01:01:27.791Z,7.43
2018-12-13T01:03:55.394Z,7.87
2018-12-13T01:06:22.831Z,6.15
2018-12-13T01:08:50.281Z,7.30
2018-12-13T01:11:17.806Z,7.47
2018-12-13T01:13:45.404Z,5.95
2018-12-13T01:16:15.722Z,8.50
2018-12-13T01:18:47.715Z,7.47
2018-12-13T01:21:20.462Z,6.60
2018-12-13T01:23:44.850Z,8.65
2018-12-13T01:26:12.316Z,8.03
2018-12-13T01:28:40.001Z,7.10
2018-12-13T01:31:07.440Z,6.80
2018-12-13T01:33:34.908Z,7.33
2018-12-13T01:36:02.377Z,7.03
2018-12-13T01:38:29.922Z,7.65
2018-12-13T01:40:58.285Z,6.73
2018-12-13T01:43:25.766Z,7.37
2018-12-13T01:45:53.197Z,7.67
2018-12-13T01:48:20.672Z,7.28
2018-12-13T01:50:48.114Z,7.22
2018-12-13T01:53:15.589Z,7.73
2018-12-13T01:55:43.069Z,8.20
2018-12-13T01:58:10.532Z,8.45
2018-12-13T02:00:37.974Z,6.45
2018-12-13T02:03:06.169Z,7.70
2018-12-13T02:05:33.668Z,8.60
2018-12-13T02:08:01.357Z,6.50
2018-12-13T02:10:28.829Z,6.10
2018-12-13T02:12:56.283Z,6.10
2018-12-13T02:15:24.045Z,6.37
2018-12-13T02:17:51.607Z,5.97
2018-12-13T02:20:19.072Z,6.30
2018-12-13T02:22:46.568Z,6.72
2018-12-13T02:25:14.772Z,6.62
2018-12-13T02:27:42.215Z,7.20
2018-12-13T02:30:11.470Z,5.80
2018-12-13T02:32:39.161Z,5.95
2018-12-13T02:35:06.793Z,7.80
2018-12-13T02:37:34.297Z,6.30
2018-12-13T02:40:01.791Z,8.38
2018-12-13T02:42:29.249Z,7.33
2018-12-13T02:44:56.743Z,6.07
2018-12-13T02:47:24.161Z,7.45
2018-12-13T02:49:51.696Z,6.60
2018-12-13T02:52:19.491Z,7.58
2018-12-13T02:54:47.064Z,8.03
2018-12-13T02:57:14.534Z,6.33
2018-12-13T02:59:42.013Z,7.20
2018-12-13T03:02:09.482Z,7.53
2018-12-13T03:04:36.927Z,8.10
2018-12-13T03:07:04.458Z,7.42
2018-12-13T03:09:31.966Z,7.93
2018-12-13T03:11:59.489Z,7.87
2018-12-13T03:14:26.992Z,7.73
2018-12-13T03:16:54.474Z,8.10
2018-12-13T03:19:21.930Z,8.00
2018-12-13T03:21:50.127Z,6.30
2018-12-13T03:24:17.658Z,9.10
2018-12-13T03:26:45.127Z,8.37
2018-12-13T03:29:12.670Z,6.70
2018-12-13T03:31:40.143Z,8.35
2018-12-13T03:34:07.629Z,8.30
2018-12-13T03:36:42.078Z,7.87
2018-12-13T03:39:09.708Z,7.25
2018-12-13T03:41:37.214Z,9.20
2018-12-13T03:44:04.782Z,8.10
2018-12-13T03:46:32.238Z,7.97
2018-12-13T03:48:59.687Z,8.53
2018-12-13T03:51:30.530Z,8.20
2018-12-13T03:53:57.994Z,8.28
2018-12-13T03:56:25.459Z,8.37
2018-12-13T03:58:53.823Z,8.90
2018-12-13T04:01:21.296Z,8.97
2018-12-13T04:03:48.944Z,9.37
2018-12-13T04:06:20.907Z,8.70
2018-12-13T04:08:48.978Z,9.00
2018-12-13T04:11:16.429Z,8.37
2018-12-13T04:13:44.101Z,8.97
2018-12-13T04:16:11.673Z,9.35
2018-12-13T04:18:39.322Z,8.97
2018-12-13T04:21:06.793Z,6.73
2018-12-13T04:23:34.326Z,10.05
2018-12-13T04:26:02.626Z,7.97
2018-12-13T04:28:30.174Z,9.87
2018-12-13T04:31:24.473Z,7.40
2018-12-13T04:33:52.163Z,8.67
2018-12-13T04:36:19.682Z,9.05
2018-12-13T04:38:47.157Z,8.00
2018-12-13T04:41:14.607Z,9.53
2018-12-13T04:43:42.080Z,8.88
2018-12-13T04:46:10.446Z,7.08
2018-12-13T04:48:37.961Z,8.60
2018-12-13T04:51:05.405Z,9.07
2018-12-13T04:53:32.862Z,9.00
2018-12-13T04:56:00.456Z,8.03
2018-12-13T04:58:27.889Z,9.03
2018-12-13T05:00:55.361Z,11.60
2018-12-13T05:03:23.001Z,9.08
2018-12-13T05:05:50.584Z,10.53
2018-12-13T05:08:18.564Z,9.47
2018-12-13T05:10:50.823Z,9.45
2018-12-13T05:13:19.134Z,9.15
2018-12-13T05:15:47.197Z,8.98
2018-12-13T05:18:14.841Z,9.00
2018-12-13T05:20:42.310Z,10.03
2018-12-13T05:23:10.054Z,8.23
2018-12-13T05:25:38.461Z,8.98
2018-12-13T05:28:06.062Z,10.80
2018-12-13T05:30:33.611Z,8.70
2018-12-13T05:33:01.090Z,9.00
2018-12-13T05:35:28.573Z,7.05
2018-12-13T05:37:56.069Z,9.80
2018-12-13T05:40:23.590Z,8.80
2018-12-13T05:42:51.078Z,7.36
2018-12-13T05:45:18.541Z,10.32
2018-12-13T05:47:46.564Z,9.18
2018-12-13T05:50:14.042Z,11.00
2018-12-13T05:52:41.726Z,10.90
2018-12-13T05:55:09.590Z,10.90
2018-12-13T05:57:37.035Z,9.67
2018-12-13T06:00:06.697Z,9.55
2018-12-13T06:02:34.193Z,10.27
2018-12-13T06:05:01.650Z,11.48
2018-12-13T06:07:29.413Z,10.50
2018-12-13T06:09:56.857Z,10.10
2018-12-13T06:12:25.047Z,9.43
2018-12-13T06:14:52.506Z,10.30
2018-12-13T06:17:19.958Z,12.93
2018-12-13T06:19:47.461Z,9.35
2018-12-13T06:22:15.243Z,9.60
2018-12-13T06:24:42.741Z,8.98
2018-12-13T06:27:10.217Z,11.87
2018-12-13T06:29:41.821Z,11.18
2018-12-13T06:32:07.954Z,9.13
2018-12-13T06:34:35.642Z,11.10
2018-12-13T06:37:03.659Z,10.98
2018-12-13T06:39:31.194Z,12.00
2018-12-13T06:41:58.688Z,12.23
2018-12-13T06:44:26.136Z,10.10
2018-12-13T06:46:53.679Z,10.82
2018-12-13T06:49:21.128Z,11.40
2018-12-13T06:51:48.678Z,10.80
2018-12-13T06:54:17.046Z,11.50
2018-12-13T06:56:44.597Z,12.82
2018-12-13T06:59:12.266Z,11.77
2018-12-13T07:01:39.773Z,11.70
2018-12-13T07:04:10.369Z,11.37
2018-12-13T07:06:37.805Z,10.03
2018-12-13T07:09:05.878Z,11.30
2018-12-13T07:11:33.338Z,10.77
2018-12-13T07:14:00.900Z,11.50
2018-12-13T07:16:28.375Z,10.30
2018-12-13T07:18:55.827Z,12.98
2018-12-13T07:21:23.298Z,11.60
2018-12-13T07:23:50.904Z,12.07
2018-12-13T07:26:18.480Z,11.27
2018-12-13T07:28:45.922Z,10.87
2018-12-13T07:31:13.387Z,12.80
2018-12-13T07:33:40.826Z,12.98
2018-12-13T07:36:09.304Z,12.40
2018-12-13T07:38:36.745Z,12.47
2018-12-13T07:41:04.245Z,12.27
2018-12-13T07:43:31.704Z,12.00
2018-12-13T07:45:59.270Z,10.20
2018-12-13T07:48:26.803Z,12.97
2018-12-13T07:50:54.329Z,11.17
2018-12-13T07:53:22.713Z,12.53
2018-12-13T07:55:50.170Z,11.53
2018-12-13T07:58:18.127Z,10.80
2018-12-13T08:00:45.590Z,10.63
2018-12-13T08:03:13.138Z,11.60
2018-12-13T08:05:40.609Z,10.90
2018-12-13T08:08:08.310Z,13.13
2018-12-13T08:10:36.749Z,11.50
2018-12-13T08:13:04.273Z,11.93
2018-12-13T08:15:31.721Z,12.10
2018-12-13T08:18:02.040Z,12.03
2018-12-13T08:20:29.550Z,13.10
2018-12-13T08:22:57.123Z,6.60
2018-12-13T08:25:24.622Z,9.33
2018-12-13T08:27:52.068Z,9.37
2018-12-13T08:30:20.345Z,9.20
2018-12-13T08:32:47.841Z,11.20
2018-12-13T08:35:15.437Z,9.97
2018-12-13T08:37:43.126Z,11.20
2018-12-13T08:40:11.143Z,11.30
2018-12-13T08:42:38.623Z,10.95
2018-12-13T08:45:06.265Z,11.20
2018-12-13T08:47:34.235Z,10.82
2018-12-13T08:50:01.745Z,10.87
2018-12-13T08:52:29.210Z,10.57
2018-12-13T08:54:56.680Z,9.33
2018-12-13T08:57:24.157Z,9.23
2018-12-13T08:59:51.624Z,10.03
2018-12-13T09:02:19.059Z,10.30
2018-12-13T09:04:46.553Z,9.30
2018-12-13T09:07:14.154Z,7.00
2018-12-13T09:09:42.218Z,8.50
2018-12-13T09:12:09.718Z,11.25
2018-12-13T09:14:37.153Z,8.93
2018-12-13T09:17:04.636Z,5.60
2018-12-13T09:19:32.105Z,9.60
2018-12-13T09:22:11.393Z,6.85
2018-12-13T09:24:38.892Z,6.25
2018-12-13T09:27:06.377Z,9.83
2018-12-13T09:29:33.860Z,10.37
2018-12-13T09:32:01.315Z,8.87
2018-12-13T09:34:28.850Z,9.95
2018-12-13T09:36:57.215Z,8.43
2018-12-13T09:39:24.683Z,5.60
2018-12-13T09:41:52.174Z,7.43
2018-12-13T09:44:19.635Z,7.62
2018-12-13T09:46:47.137Z,6.97
2018-12-13T09:49:14.631Z,4.87
2018-12-13T09:51:46.409Z,6.23
2018-12-13T09:54:13.891Z,7.72
2018-12-13T09:56:41.637Z,7.25
2018-12-13T09:59:09.109Z,8.47
2018-12-13T10:01:36.634Z,6.20
2018-12-13T10:04:04.223Z,6.83
2018-12-13T10:06:31.693Z,7.63
2018-12-13T10:08:59.167Z,7.23
2018-12-13T10:11:26.624Z,8.97
2018-12-13T10:13:54.934Z,7.58
2018-12-13T10:16:22.366Z,8.60
2018-12-13T10:18:49.885Z,7.72
2018-12-13T10:21:17.328Z,8.10
2018-12-13T10:23:44.893Z,8.35
2018-12-13T10:26:12.554Z,8.10
2018-12-13T10:28:40.110Z,8.17
2018-12-13T10:31:07.631Z,7.33
2018-12-13T10:33:35.138Z,7.83
2018-12-13T10:36:03.386Z,8.35
2018-12-13T10:38:30.876Z,8.63
2018-12-13T10:40:58.928Z,7.30
2018-12-13T10:43:26.390Z,8.17
2018-12-13T10:45:53.893Z,9.97
2018-12-13T10:48:22.344Z,8.00
2018-12-13T10:50:49.843Z,9.53
2018-12-13T10:53:17.366Z,6.93
2018-12-13T10:55:44.799Z,9.08
2018-12-13T10:58:12.269Z,8.03
2018-12-13T11:00:41.662Z,7.90
2018-12-13T11:03:22.429Z,6.40
2018-12-13T11:05:49.968Z,8.38
2018-12-13T11:08:18.365Z,7.20
2018-12-13T11:10:45.870Z,6.53
2018-12-13T11:13:13.469Z,8.80
2018-12-13T11:15:40.991Z,8.65
2018-12-13T11:18:08.451Z,8.85
2018-12-13T11:20:35.970Z,8.98
2018-12-13T11:23:03.508Z,6.70
2018-12-13T11:25:31.881Z,8.00
2018-12-13T11:28:25.678Z,7.47
2018-12-13T11:30:53.793Z,6.72
2018-12-13T11:33:21.607Z,8.30
2018-12-13T11:35:49.092Z,14.00
2018-12-13T11:38:16.633Z,9.43
2018-12-13T11:40:44.085Z,6.53
2018-12-13T11:43:11.557Z,7.03
2018-12-13T11:45:39.669Z,6.95
2018-12-13T11:48:07.167Z,8.80
2018-12-13T11:50:34.637Z,6.50
2018-12-13T11:53:02.114Z,7.55
2018-12-13T11:55:32.541Z,8.40
2018-12-13T11:58:00.885Z,8.30
2018-12-13T12:00:29.294Z,7.97
2018-12-13T12:02:57.003Z,7.30
2018-12-13T12:05:24.541Z,8.53
2018-12-13T12:07:52.017Z,9.40
2018-12-13T12:10:19.497Z,9.70
2018-12-13T12:12:47.158Z,9.70
2018-12-13T12:15:14.936Z,8.78
2018-12-13T12:17:43.173Z,8.98
2018-12-13T12:20:11.769Z,8.67
2018-12-13T12:22:39.212Z,8.10
2018-12-13T12:25:07.649Z,9.10
2018-12-13T12:27:35.145Z,7.90
2018-12-13T12:30:03.114Z,9.27
2018-12-13T12:32:30.615Z,8.20
2018-12-13T12:34:58.108Z,8.27
2018-12-13T12:37:25.632Z,4.03
2018-12-13T12:39:53.058Z,8.58
2018-12-13T12:42:21.442Z,8.60
2018-12-13T12:44:48.991Z,7.35
2018-12-13T12:47:16.458Z,6.87
2018-12-13T12:49:43.915Z,7.67
2018-12-13T12:52:12.132Z,5.42
2018-12-13T12:54:44.081Z,8.53
2018-12-13T12:57:11.524Z,9.43
2018-12-13T12:59:38.985Z,8.18
2018-12-13T13:02:06.858Z,7.95
2018-12-13T13:04:35.437Z,9.10
2018-12-13T13:07:03.265Z,8.20
2018-12-13T13:09:30.728Z,9.03
2018-12-13T13:11:58.177Z,8.57
2018-12-13T13:14:25.641Z,10.70
2018-12-13T13:16:53.231Z,8.20
2018-12-13T13:19:20.675Z,8.50
2018-12-13T13:21:49.229Z,9.93
2018-12-13T13:24:16.719Z,10.03
2018-12-13T13:26:44.144Z,7.87
2018-12-13T13:29:11.646Z,9.13
2018-12-13T13:31:39.089Z,7.50
2018-12-13T13:34:06.602Z,5.63
2018-12-13T13:36:34.047Z,8.18
2018-12-13T13:39:01.509Z,7.40
2018-12-13T13:41:28.999Z,7.30
2018-12-13T13:43:57.012Z,6.17
2018-12-13T13:46:24.513Z,9.40
2018-12-13T13:48:52.225Z,7.40
2018-12-13T13:51:19.990Z,5.00
2018-12-13T13:53:47.453Z,5.60
2018-12-13T13:56:18.597Z,6.07
2018-12-13T13:58:46.653Z,8.43
2018-12-13T14:01:14.213Z,5.77
2018-12-13T14:03:41.802Z,10.00
2018-12-13T14:06:09.311Z,8.80
2018-12-13T14:08:36.818Z,9.40
2018-12-13T14:11:07.441Z,8.53
2018-12-13T14:13:35.831Z,9.13
2018-12-13T14:16:03.298Z,9.35
2018-12-13T14:18:30.774Z,9.30
2018-12-13T14:20:58.295Z,9.87
2018-12-13T14:23:25.790Z,9.50
2018-12-13T14:25:53.289Z,9.23
2018-12-13T14:28:24.404Z,10.67
2018-12-13T14:30:51.857Z,8.70
2018-12-13T14:33:19.813Z,9.90
2018-12-13T14:35:47.299Z,9.23
2018-12-13T14:38:14.766Z,8.77
2018-12-13T14:40:42.243Z,9.75
2018-12-13T14:43:14.310Z,10.53
2018-12-13T14:45:41.756Z,8.38
2018-12-13T14:48:09.439Z,8.80
2018-12-13T14:50:36.909Z,9.60
2018-12-13T14:53:04.387Z,9.90
2018-12-13T14:55:31.845Z,8.35
2018-12-13T14:58:02.953Z,8.90
2018-12-13T15:00:30.478Z,9.30
2018-12-13T15:02:59.002Z,7.50
2018-12-13T15:05:26.701Z,8.07
2018-12-13T15:07:54.174Z,7.80
2018-12-13T15:10:21.681Z,8.57
2018-12-13T15:12:52.590Z,9.20
2018-12-13T15:15:20.169Z,10.13
2018-12-13T15:17:49.003Z,8.80
2018-12-13T15:20:16.571Z,11.53
2018-12-13T15:22:44.074Z,10.20
2018-12-13T15:25:11.832Z,9.85
2018-12-13T15:27:43.077Z,8.15
2018-12-13T15:30:10.509Z,8.90
2018-12-13T15:32:38.006Z,9.35
2018-12-13T15:35:05.794Z,10.53
2018-12-13T15:37:33.274Z,9.73
2018-12-13T15:40:00.748Z,9.45
2018-12-13T15:42:28.237Z,9.00
2018-12-13T15:44:56.628Z,8.73
2018-12-13T15:47:24.065Z,9.30
2018-12-13T15:49:51.526Z,9.70
2018-12-13T15:52:19.036Z,6.77
2018-12-13T15:54:46.475Z,8.05
2018-12-13T15:57:13.966Z,8.83
2018-12-13T15:59:41.488Z,8.10
2018-12-13T16:02:09.041Z,7.77
2018-12-13T16:04:36.544Z,10.83
2018-12-13T16:07:04.047Z,8.37
2018-12-13T16:09:31.535Z,8.97
2018-12-13T16:12:00.345Z,8.25
2018-12-13T16:14:27.861Z,10.47
2018-12-13T16:16:55.312Z,9.03
2018-12-13T16:19:22.841Z,10.20
2018-12-13T16:21:50.299Z,10.50
2018-12-13T16:24:17.734Z,10.75
2018-12-13T16:26:45.225Z,10.50
2018-12-13T16:29:16.907Z,10.35
2018-12-13T16:31:44.409Z,9.10
2018-12-13T16:34:11.917Z,10.27
2018-12-13T16:36:39.407Z,8.10
2018-12-13T16:39:08.454Z,9.15
2018-12-13T16:41:35.948Z,12.35
2018-12-13T16:44:03.470Z,10.70
2018-12-13T16:46:31.017Z,11.83
2018-12-13T16:48:58.496Z,11.30
2018-12-13T16:51:25.962Z,11.50
2018-12-13T16:53:53.444Z,10.43
2018-12-13T16:56:20.913Z,10.72
2018-12-13T16:58:48.435Z,10.20
2018-12-13T17:01:16.861Z,13.80
2018-12-13T17:03:44.341Z,16.37
2018-12-13T17:06:11.912Z,15.48
2018-12-13T17:08:39.391Z,9.20
2018-12-13T17:11:06.894Z,10.50
2018-12-13T17:13:34.469Z,11.45
2018-12-13T17:16:01.909Z,10.40
2018-12-13T17:18:30.317Z,11.75
2018-12-13T17:20:57.784Z,11.73
2018-12-13T17:23:25.276Z,8.60
2018-12-13T17:25:52.741Z,8.78
2018-12-13T17:28:20.226Z,9.30
2018-12-13T17:30:47.906Z,8.77
2018-12-13T17:33:15.353Z,11.70
2018-12-13T17:35:43.814Z,11.00
2018-12-13T17:38:11.302Z,10.40
2018-12-13T17:40:38.850Z,9.73
2018-12-13T17:43:06.297Z,10.85
2018-12-13T17:45:33.874Z,10.32
2018-12-13T17:48:01.385Z,10.13
2018-12-13T17:50:28.887Z,9.87
2018-12-13T17:52:56.399Z,9.60
2018-12-13T17:55:23.935Z,8.50
2018-12-13T17:57:52.246Z,12.05
2018-12-13T18:00:20.105Z,9.40
2018-12-13T18:02:47.643Z,9.45
2018-12-13T18:05:15.202Z,8.20
2018-12-13T18:07:42.678Z,9.10
2018-12-13T18:10:11.460Z,7.42
2018-12-13T18:12:38.999Z,8.00
2018-12-13T18:15:06.629Z,11.23
2018-12-13T18:17:34.306Z,9.78
2018-12-13T18:20:01.786Z,10.23
2018-12-13T18:22:29.289Z,12.30
2018-12-13T18:24:56.802Z,12.00
2018-12-13T18:27:25.316Z,12.78
2018-12-13T18:29:52.773Z,11.73
2018-12-13T18:32:20.246Z,11.47
2018-12-13T18:34:47.829Z,12.33
2018-12-13T18:37:15.285Z,11.17
2018-12-13T18:39:42.790Z,11.87
2018-12-13T18:42:10.322Z,14.23
2018-12-13T18:44:37.753Z,11.10
2018-12-13T18:47:05.398Z,11.33
2018-12-13T18:49:33.369Z,11.18
2018-12-13T18:52:01.073Z,13.55
2018-12-13T18:54:28.721Z,12.03
2018-12-13T18:56:56.172Z,13.62
2018-12-13T18:59:23.674Z,13.77
2018-12-13T19:01:51.151Z,13.25
2018-12-13T19:04:18.795Z,12.07
2018-12-13T19:06:47.333Z,12.35
2018-12-13T19:09:14.994Z,13.07
2018-12-13T19:11:42.548Z,13.00
2018-12-13T19:14:10.000Z,12.93
2018-12-13T19:16:37.547Z,10.23
2018-12-13T19:19:05.049Z,11.97
2018-12-13T19:21:32.526Z,12.30
2018-12-13T19:24:00.946Z,10.83
2018-12-13T19:26:28.454Z,11.53
2018-12-13T19:28:55.969Z,13.20
2018-12-13T19:31:26.607Z,11.70
2018-12-13T19:33:54.078Z,11.97
2018-12-13T19:36:21.682Z,13.63
2018-12-13T19:38:49.375Z,13.67
2018-12-13T19:41:16.890Z,12.43
2018-12-13T19:43:44.933Z,12.40
2018-12-13T19:46:12.409Z,12.23
2018-12-13T19:48:39.838Z,10.20
2018-12-13T19:51:07.581Z,13.20
2018-12-13T19:53:35.029Z,12.53
2018-12-13T19:56:02.595Z,11.57
2018-12-13T19:58:30.057Z,11.23
2018-12-13T20:00:58.433Z,10.05
2018-12-13T20:03:26.010Z,12.82
2018-12-13T20:05:53.470Z,13.37
2018-12-13T20:08:20.915Z,13.23
2018-12-13T20:10:54.465Z,12.25
2018-12-13T20:13:17.969Z,12.03
2018-12-13T20:15:45.430Z,13.20
2018-12-13T20:18:12.914Z,13.20
2018-12-13T20:20:40.354Z,12.57
2018-12-13T20:23:07.802Z,12.25
2018-12-13T20:25:35.363Z,12.35
2018-12-13T20:28:02.842Z,13.50
2018-12-13T20:30:31.221Z,12.62
2018-12-13T20:33:06.233Z,12.10
2018-12-13T20:35:33.704Z,11.12
2018-12-13T20:38:01.669Z,11.60
2018-12-13T20:40:29.179Z,11.97
2018-12-13T20:42:57.289Z,12.40
2018-12-13T20:45:25.069Z,11.37
2018-12-13T20:47:52.552Z,11.77
2018-12-13T20:50:20.094Z,12.00
2018-12-13T20:52:47.691Z,10.82
2018-12-13T20:55:15.649Z,11.57
2018-12-13T20:57:43.089Z,9.65
2018-12-13T21:00:10.670Z,11.80
2018-12-13T21:02:38.117Z,12.53
2018-12-13T21:05:05.779Z,11.53
2018-12-13T21:07:33.681Z,11.83
2018-12-13T21:10:01.235Z,10.95
2018-12-13T21:12:29.657Z,10.77
2018-12-13T21:14:57.111Z,10.37
2018-12-13T21:17:24.573Z,8.63
2018-12-13T21:19:52.129Z,10.70
2018-12-13T21:22:19.658Z,10.10
2018-12-13T21:24:47.120Z,9.60
2018-12-13T21:27:14.606Z,10.73
2018-12-13T21:29:42.073Z,10.65
2018-12-13T21:32:09.583Z,10.48
2018-12-13T21:34:37.551Z,9.73
2018-12-13T21:37:05.109Z,10.82
2018-12-13T21:39:32.558Z,9.67
2018-12-13T21:42:00.030Z,11.63
2018-12-13T21:44:27.729Z,9.70
2018-12-13T21:46:55.189Z,10.50
2018-12-13T21:49:22.653Z,10.83
2018-12-13T21:51:50.392Z,9.63
2018-12-13T21:54:17.849Z,10.87
2018-12-13T21:56:46.578Z,9.93
2018-12-13T21:59:14.050Z,10.03
2018-12-13T22:01:41.975Z,10.40
2018-12-13T22:04:09.421Z,10.70
2018-12-13T22:06:36.981Z,9.17
2018-12-13T22:09:06.490Z,10.38
2018-12-13T22:11:34.158Z,11.60
2018-12-13T22:14:01.605Z,10.93
2018-12-13T22:16:29.627Z,10.82
2018-12-13T22:18:57.092Z,11.45
2018-12-13T22:21:24.535Z,10.00
2018-12-13T22:23:52.011Z,10.90
2018-12-13T22:26:19.458Z,12.80
2018-12-13T22:28:46.940Z,9.57
2018-12-13T22:31:14.402Z,10.43
2018-12-13T22:33:41.958Z,10.90
2018-12-13T22:36:09.503Z,11.20
2018-12-13T22:38:37.005Z,12.27
2018-12-13T22:41:04.579Z,10.57
2018-12-13T22:43:32.981Z,12.54
2018-12-13T22:46:02.445Z,12.03
2018-12-13T22:48:30.321Z,11.23
2018-12-13T22:50:58.074Z,13.10
2018-12-13T22:53:25.639Z,11.80
2018-12-13T22:55:53.141Z,10.80
2018-12-13T22:58:20.623Z,11.03
2018-12-13T23:00:48.135Z,10.53
2018-12-13T23:03:15.589Z,11.00
2018-12-13T23:05:47.330Z,11.70
2018-12-13T23:08:14.763Z,10.43
2018-12-13T23:10:42.630Z,9.63
2018-12-13T23:13:10.530Z,11.43
2018-12-13T23:15:38.281Z,10.90
2018-12-13T23:18:06.161Z,10.95
2018-12-13T23:20:33.604Z,11.77
2018-12-13T23:23:01.106Z,8.57
2018-12-13T23:25:28.674Z,13.00
2018-12-13T23:27:56.197Z,9.33
2018-12-13T23:30:23.686Z,9.33
2018-12-13T23:32:51.118Z,11.20
2018-12-13T23:35:19.510Z,10.08
2018-12-13T23:37:47.038Z,12.10
2018-12-13T23:40:14.513Z,8.03
2018-12-13T23:42:41.991Z,10.90
2018-12-13T23:45:09.476Z,9.68
2018-12-13T23:47:37.961Z,11.27
2018-12-13T23:50:05.773Z,10.93
2018-12-13T23:52:33.687Z,9.60
2018-12-13T23:55:01.147Z,11.93
2018-12-13T23:57:28.845Z,10.70
2018-12-13T23:59:56.314Z,11.37
